createdAt,value
2022-11-30T12:37:00.381Z,103.75
2022-11-30T12:40:19.436Z,101.57
2022-11-30T12:43:37.948Z,103.90
2022-11-30T12:46:48.082Z,110.32
2022-11-30T12:49:46.016Z,106.75
2022-11-30T12:52:48.339Z,106.72
2022-11-30T12:56:01.355Z,101.18
2022-11-30T12:59:15.294Z,106.82
2022-11-30T13:02:27.438Z,112.38
2022-11-30T13:05:21.235Z,110.70
2022-11-30T13:08:25.612Z,109.22
2022-11-30T13:11:36.718Z,109.78
2022-11-30T13:14:24.111Z,117.65
2022-11-30T13:21:04.839Z,116.80
2022-11-30T13:27:18.250Z,110.30
2022-11-30T13:30:12.346Z,111.25
2022-11-30T13:33:36.178Z,103.57
2022-11-30T13:36:43.523Z,112.57
2022-11-30T13:39:33.838Z,109.75
2022-11-30T13:42:47.355Z,105.10
2022-11-30T13:45:47.736Z,111.68
2022-11-30T13:48:38.099Z,110.93
2022-11-30T13:51:38.328Z,112.85
2022-11-30T13:54:40.256Z,129.73
2022-11-30T13:57:25.375Z,119.93
2022-11-30T14:00:29.902Z,115.38
2022-11-30T14:03:23.162Z,113.90
2022-11-30T14:06:39.565Z,123.85
2022-11-30T14:09:40.518Z,125.22
2022-11-30T14:12:36.776Z,124.90
2022-11-30T14:15:43.252Z,127.05
2022-11-30T14:18:40.939Z,121.18
2022-11-30T14:21:33.001Z,118.38
2022-11-30T14:24:23.163Z,126.55
2022-11-30T14:27:15.834Z,132.48
2022-11-30T14:30:04.041Z,124.60
2022-11-30T14:32:56.188Z,125.85
2022-11-30T14:35:43.719Z,131.48
2022-11-30T14:38:31.114Z,129.73
2022-11-30T14:41:25.792Z,122.93
2022-11-30T14:44:13.829Z,135.35
2022-11-30T14:47:13.450Z,147.27
2022-11-30T14:50:02.564Z,123.60
2022-11-30T14:52:59.997Z,138.65
2022-11-30T14:55:52.462Z,132.68
2022-11-30T14:58:46.827Z,136.85
2022-11-30T15:01:33.342Z,141.30
2022-11-30T15:04:18.793Z,140.93
2022-11-30T15:07:04.115Z,148.05
2022-11-30T15:09:56.804Z,151.05
2022-11-30T15:12:44.967Z,151.60
2022-11-30T15:15:31.270Z,147.88
2022-11-30T15:18:18.914Z,149.80
2022-11-30T15:21:12.337Z,137.63
2022-11-30T15:24:00.243Z,133.80
2022-11-30T15:27:10.363Z,136.70
2022-11-30T15:30:01.114Z,142.50
2022-11-30T15:32:52.316Z,143.15
2022-11-30T15:35:57.401Z,138.52
2022-11-30T15:38:51.953Z,144.73
2022-11-30T15:41:37.545Z,141.98
2022-11-30T15:44:39.193Z,150.20
2022-11-30T15:47:37.509Z,143.43
2022-11-30T15:50:28.639Z,147.30
2022-11-30T15:53:26.677Z,150.43
2022-11-30T15:56:24.020Z,155.85
2022-11-30T15:59:25.003Z,144.00
2022-11-30T16:02:33.639Z,138.38
2022-11-30T16:05:19.621Z,129.80
2022-11-30T16:08:06.224Z,138.77
2022-11-30T16:10:51.556Z,150.10
2022-11-30T16:13:37.120Z,129.60
2022-11-30T16:16:28.194Z,131.15
2022-11-30T16:19:13.716Z,135.95
2022-11-30T16:21:58.922Z,119.32
2022-11-30T16:24:43.974Z,123.68
2022-11-30T16:27:30.560Z,133.55
2022-11-30T16:30:22.397Z,134.32
2022-11-30T16:33:18.745Z,136.30
2022-11-30T16:36:08.445Z,129.02
2022-11-30T16:38:54.060Z,138.50
2022-11-30T16:41:39.552Z,130.52
2022-11-30T16:44:24.631Z,136.65
2022-11-30T16:47:09.917Z,129.15
2022-11-30T16:49:55.393Z,134.98
2022-11-30T16:52:41.870Z,140.68
2022-11-30T16:55:34.455Z,131.70
2022-11-30T16:58:19.561Z,133.18
2022-11-30T17:01:07.354Z,133.05
2022-11-30T17:03:52.983Z,143.68
2022-11-30T17:06:38.489Z,128.85
2022-11-30T17:09:23.996Z,127.32
2022-11-30T17:12:09.437Z,143.23
2022-11-30T17:14:54.665Z,134.65
2022-11-30T17:17:39.886Z,131.43
2022-11-30T17:20:26.906Z,138.52
2022-11-30T17:23:12.455Z,124.10
2022-11-30T17:25:57.877Z,133.48
2022-11-30T17:28:43.205Z,133.75
2022-11-30T17:31:28.568Z,138.57
2022-11-30T17:34:13.677Z,143.70
2022-11-30T17:36:59.257Z,123.50
2022-11-30T17:39:44.487Z,135.20
2022-11-30T17:42:30.154Z,142.95
2022-11-30T17:45:15.733Z,144.82
2022-11-30T17:48:00.816Z,143.55
2022-11-30T17:50:50.776Z,141.18
2022-11-30T17:53:40.917Z,144.20
2022-11-30T17:56:26.123Z,140.48
2022-11-30T17:59:11.364Z,145.63
2022-11-30T18:01:56.497Z,145.27
2022-11-30T18:04:41.659Z,139.02
2022-11-30T18:07:26.902Z,145.52
2022-11-30T18:10:13.012Z,149.82
2022-11-30T18:12:58.443Z,140.63
2022-11-30T18:15:44.651Z,136.02
2022-11-30T18:18:31.499Z,150.30
2022-11-30T18:21:19.930Z,133.48
2022-11-30T18:24:05.919Z,147.07
2022-11-30T18:26:51.074Z,140.50
2022-11-30T18:29:36.508Z,134.30
2022-11-30T18:32:21.619Z,147.80
2022-11-30T18:35:07.997Z,137.00
2022-11-30T18:37:53.505Z,140.88
2022-11-30T18:40:38.609Z,150.43
2022-11-30T18:43:23.917Z,149.63
2022-11-30T18:46:12.016Z,131.55
2022-11-30T18:48:59.064Z,143.88
2022-11-30T18:51:44.561Z,139.15
2022-11-30T18:54:31.504Z,132.93
2022-11-30T18:57:16.921Z,133.05
2022-11-30T19:00:04.961Z,126.20
2022-11-30T19:02:51.195Z,123.97
2022-11-30T19:05:38.220Z,129.60
2022-11-30T19:08:23.399Z,127.95
2022-11-30T19:11:09.493Z,123.65
2022-11-30T19:13:56.469Z,122.05
2022-11-30T19:16:42.839Z,126.25
2022-11-30T19:19:28.262Z,118.35
2022-11-30T19:22:13.501Z,125.50
2022-11-30T19:24:59.193Z,120.40
2022-11-30T19:27:44.448Z,118.40
2022-11-30T19:30:30.114Z,115.72
2022-11-30T19:33:15.198Z,114.32
2022-11-30T19:36:01.833Z,107.78
2022-11-30T19:38:48.290Z,117.55
2022-11-30T19:41:33.625Z,112.32
2022-11-30T19:44:19.031Z,108.93
2022-11-30T19:47:04.520Z,120.20
2022-11-30T19:49:50.027Z,113.82
2022-11-30T19:52:35.285Z,125.82
2022-11-30T19:55:20.727Z,115.90
2022-11-30T19:58:05.904Z,121.60
2022-11-30T20:00:51.115Z,119.65
2022-11-30T20:03:36.598Z,117.72
2022-11-30T20:06:25.596Z,115.90
2022-11-30T20:09:11.045Z,117.38
2022-11-30T20:11:56.234Z,110.15
2022-11-30T20:14:41.360Z,113.05
2022-11-30T20:17:26.810Z,115.20
2022-11-30T20:20:13.195Z,121.97
2022-11-30T20:22:58.542Z,106.40
2022-11-30T20:25:44.126Z,119.18
2022-11-30T20:28:29.552Z,112.93
2022-11-30T20:31:17.017Z,109.80
2022-11-30T20:34:02.597Z,118.25
2022-11-30T20:36:48.017Z,123.43
2022-11-30T20:39:33.286Z,111.30
2022-11-30T20:42:18.471Z,119.80
2022-11-30T20:45:03.980Z,120.10
2022-11-30T20:47:49.410Z,127.47
2022-11-30T20:50:34.914Z,122.22
2022-11-30T20:53:20.181Z,122.10
2022-11-30T20:56:05.985Z,127.32
2022-11-30T20:58:51.358Z,114.95
2022-11-30T21:01:36.946Z,123.50
2022-11-30T21:04:23.935Z,113.75
2022-11-30T21:07:09.462Z,114.97
2022-11-30T21:09:55.049Z,116.85
2022-11-30T21:12:40.565Z,112.63
2022-11-30T21:15:25.907Z,122.28
2022-11-30T21:18:11.330Z,117.90
2022-11-30T21:21:11.687Z,123.60
2022-11-30T21:23:59.831Z,109.88
2022-11-30T21:26:45.338Z,112.72
2022-11-30T21:29:30.571Z,116.32
2022-11-30T21:32:16.001Z,109.38
2022-11-30T21:35:01.506Z,114.15
2022-11-30T21:37:46.717Z,122.68
2022-11-30T21:40:31.867Z,114.00
2022-11-30T21:43:17.376Z,119.43
2022-11-30T21:46:11.776Z,125.88
2022-11-30T21:48:57.208Z,111.60
2022-11-30T21:51:42.813Z,121.82
2022-11-30T21:54:28.235Z,120.22
2022-11-30T21:57:13.605Z,109.57
2022-11-30T21:59:59.243Z,115.22
2022-11-30T22:02:45.308Z,119.40
2022-11-30T22:05:30.845Z,117.70
2022-11-30T22:08:16.442Z,126.25
2022-11-30T22:11:13.011Z,123.55
2022-11-30T22:13:58.598Z,128.80
2022-11-30T22:16:44.237Z,128.48
2022-11-30T22:19:29.737Z,119.85
2022-11-30T22:22:14.854Z,125.72
2022-11-30T22:24:59.960Z,129.25
2022-11-30T22:27:45.314Z,124.28
2022-11-30T22:30:30.772Z,128.52
2022-11-30T22:33:21.187Z,126.45
2022-11-30T22:36:07.711Z,128.02
2022-11-30T22:38:55.424Z,121.38
2022-11-30T22:41:42.142Z,113.75
2022-11-30T22:44:27.410Z,119.95
2022-11-30T22:47:13.585Z,111.47
2022-11-30T22:49:59.271Z,109.93
2022-11-30T22:53:02.414Z,111.95
2022-11-30T22:55:48.616Z,115.72
2022-11-30T22:58:34.606Z,111.97
2022-11-30T23:01:19.720Z,114.85
2022-11-30T23:04:08.997Z,118.85
2022-11-30T23:06:54.630Z,112.15
2022-11-30T23:09:39.968Z,126.70
2022-11-30T23:12:57.511Z,113.13
2022-11-30T23:15:30.902Z,122.50
2022-11-30T23:18:17.681Z,137.82
2022-11-30T23:21:15.628Z,134.73
2022-11-30T23:24:03.278Z,118.10
2022-11-30T23:26:49.160Z,129.13
2022-11-30T23:29:34.850Z,118.90
2022-11-30T23:32:20.136Z,124.80
2022-11-30T23:35:05.949Z,119.05
2022-11-30T23:37:52.344Z,127.43
2022-11-30T23:40:37.724Z,121.22
2022-11-30T23:43:23.069Z,121.38
2022-11-30T23:46:10.217Z,124.45
2022-11-30T23:48:55.759Z,124.80
2022-11-30T23:51:41.968Z,121.38
2022-11-30T23:54:28.231Z,122.68
2022-11-30T23:57:13.514Z,111.75
2022-11-30T23:59:58.624Z,105.70
